createdAt,value
2023-03-14T00:01:16.325Z,8.95
2023-03-14T00:03:43.758Z,8.68
2023-03-14T00:06:11.686Z,8.85
2023-03-14T00:08:38.834Z,9.03
2023-03-14T00:11:15.154Z,9.17
2023-03-14T00:13:42.058Z,9.62
2023-03-14T00:16:13.526Z,9.63
2023-03-14T00:18:41.345Z,9.36
2023-03-14T00:21:11.467Z,9.67
2023-03-14T00:23:40.989Z,9.96
2023-03-14T00:26:13.598Z,10.19
2023-03-14T00:28:41.460Z,10.21
2023-03-14T00:31:11.347Z,10.26
2023-03-14T00:33:38.241Z,9.86
2023-03-14T00:36:11.708Z,9.71
2023-03-14T00:38:39.802Z,9.59
2023-03-14T00:41:10.127Z,10.27
2023-03-14T00:43:36.822Z,10.64
2023-03-14T00:46:04.284Z,10.50
2023-03-14T00:48:31.449Z,10.80
2023-03-14T00:50:58.188Z,10.20
2023-03-14T00:53:25.071Z,10.23
2023-03-14T00:55:52.278Z,9.92
2023-03-14T00:58:19.755Z,10.22
2023-03-14T01:00:47.300Z,10.32
2023-03-14T01:03:15.743Z,10.31
2023-03-14T01:05:42.727Z,9.76
2023-03-14T01:08:09.471Z,9.84
2023-03-14T01:10:40.797Z,9.20
2023-03-14T01:13:07.732Z,9.96
2023-03-14T01:15:36.281Z,10.07
2023-03-14T01:18:03.782Z,10.47
2023-03-14T01:20:30.544Z,10.40
2023-03-14T01:22:57.251Z,10.27
2023-03-14T01:25:24.218Z,10.56
2023-03-14T01:27:50.853Z,9.59
2023-03-14T01:30:17.627Z,9.53
2023-03-14T01:32:44.557Z,10.00
2023-03-14T01:35:11.198Z,10.27
2023-03-14T01:37:37.883Z,10.22
2023-03-14T01:40:04.902Z,10.08
2023-03-14T01:42:31.508Z,9.99
2023-03-14T01:45:00.628Z,10.31
2023-03-14T01:47:27.939Z,9.93
2023-03-14T01:50:12.720Z,9.89
2023-03-14T01:52:47.241Z,9.72
2023-03-14T01:55:20.239Z,9.14
2023-03-14T01:58:04.067Z,9.76
2023-03-14T02:00:30.968Z,9.20
2023-03-14T02:03:06.704Z,9.59
2023-03-14T02:05:38.874Z,9.15
2023-03-14T02:08:10.858Z,9.39
2023-03-14T02:10:42.505Z,9.44
2023-03-14T02:13:09.744Z,8.98
2023-03-14T02:15:36.809Z,8.81
2023-03-14T02:18:05.331Z,8.82
2023-03-14T02:20:55.295Z,9.18
2023-03-14T02:23:38.510Z,8.88
2023-03-14T02:26:15.936Z,9.02
2023-03-14T02:28:42.975Z,9.11
2023-03-14T02:31:09.698Z,9.46
2023-03-14T02:33:39.357Z,9.26
2023-03-14T02:36:11.575Z,9.84
2023-03-14T02:38:56.640Z,10.21
2023-03-14T02:41:23.555Z,9.86
2023-03-14T02:43:50.416Z,9.76
2023-03-14T02:46:22.239Z,9.55
2023-03-14T02:48:53.942Z,9.43
2023-03-14T02:51:22.577Z,10.03
2023-03-14T02:53:49.166Z,10.06
2023-03-14T02:56:15.906Z,10.02
2023-03-14T02:58:42.482Z,9.93
2023-03-14T03:01:09.239Z,10.23
2023-03-14T03:03:35.952Z,9.74
2023-03-14T03:06:03.478Z,9.61
2023-03-14T03:08:30.334Z,9.92
2023-03-14T03:10:58.603Z,9.74
2023-03-14T03:13:25.330Z,9.54
2023-03-14T03:15:51.976Z,9.59
2023-03-14T03:18:18.600Z,9.32
2023-03-14T03:20:45.245Z,9.98
2023-03-14T03:23:11.954Z,10.30
2023-03-14T03:25:38.624Z,10.19
2023-03-14T03:28:05.415Z,10.48
2023-03-14T03:30:32.092Z,10.66
2023-03-14T03:32:58.807Z,9.58
2023-03-14T03:35:25.443Z,9.07
2023-03-14T03:37:52.040Z,8.94
2023-03-14T03:40:18.702Z,8.51
2023-03-14T03:42:45.319Z,8.61
2023-03-14T03:45:11.893Z,8.39
2023-03-14T03:47:38.511Z,8.88
2023-03-14T03:50:05.592Z,9.09
2023-03-14T03:52:32.289Z,9.09
2023-03-14T03:54:58.916Z,9.12
2023-03-14T03:57:25.537Z,8.78
2023-03-14T03:59:52.141Z,8.76
2023-03-14T04:02:18.796Z,8.75
2023-03-14T04:04:45.572Z,8.82
2023-03-14T04:07:12.382Z,9.08
2023-03-14T04:09:39.233Z,9.08
2023-03-14T04:12:05.961Z,9.07
2023-03-14T04:14:32.634Z,9.07
2023-03-14T04:16:59.338Z,9.09
2023-03-14T04:19:25.979Z,9.46
2023-03-14T04:21:52.610Z,9.19
2023-03-14T04:24:19.268Z,9.22
2023-03-14T04:26:45.923Z,9.23
2023-03-14T04:29:13.536Z,8.95
2023-03-14T04:31:40.298Z,8.72
2023-03-14T04:34:07.023Z,8.75
2023-03-14T04:36:33.809Z,8.62
2023-03-14T04:39:00.479Z,8.44
2023-03-14T04:41:27.217Z,8.88
2023-03-14T04:43:53.813Z,8.95
2023-03-14T04:46:20.533Z,9.16
2023-03-14T04:48:47.133Z,9.09
2023-03-14T04:51:13.731Z,8.95
2023-03-14T04:53:40.389Z,9.22
2023-03-14T04:56:07.345Z,8.78
2023-03-14T04:58:33.958Z,8.27
2023-03-14T05:01:05.245Z,8.37
2023-03-14T05:03:31.835Z,8.45
2023-03-14T05:05:58.545Z,8.49
2023-03-14T05:08:25.246Z,8.37
2023-03-14T05:10:56.359Z,8.39
2023-03-14T05:13:23.401Z,8.38
2023-03-14T05:15:50.360Z,8.35
2023-03-14T05:18:17.525Z,8.48
2023-03-14T05:20:44.116Z,8.28
2023-03-14T05:23:11.347Z,8.41
2023-03-14T05:25:38.065Z,8.25
2023-03-14T05:28:04.816Z,8.21
2023-03-14T05:30:31.472Z,8.24
2023-03-14T05:32:58.154Z,8.09
2023-03-14T05:35:24.836Z,8.40
2023-03-14T05:37:51.501Z,8.40
2023-03-14T05:40:18.328Z,8.29
2023-03-14T05:42:44.973Z,8.63
2023-03-14T05:45:11.844Z,8.76
2023-03-14T05:47:38.470Z,8.49
2023-03-14T05:50:05.483Z,8.47
2023-03-14T05:52:32.162Z,8.99
2023-03-14T05:54:58.836Z,8.36
2023-03-14T05:57:25.457Z,8.16
2023-03-14T05:59:52.046Z,8.08
2023-03-14T06:02:18.785Z,7.99
2023-03-14T06:04:45.409Z,7.94
2023-03-14T06:07:12.052Z,7.73
2023-03-14T06:09:38.662Z,7.94
2023-03-14T06:12:05.348Z,7.90
2023-03-14T06:14:32.592Z,7.86
2023-03-14T06:16:59.202Z,7.80
2023-03-14T06:19:26.599Z,7.68
2023-03-14T06:21:53.241Z,7.46
2023-03-14T06:24:19.858Z,7.58
2023-03-14T06:26:46.489Z,7.69
2023-03-14T06:29:13.142Z,7.59
2023-03-14T06:31:40.083Z,7.90
2023-03-14T06:34:06.867Z,8.12
2023-03-14T06:36:33.546Z,7.94
2023-03-14T06:39:00.316Z,7.83
2023-03-14T06:41:27.004Z,7.54
2023-03-14T06:43:55.453Z,7.34
2023-03-14T06:46:23.757Z,7.43
2023-03-14T06:48:50.506Z,7.33
2023-03-14T06:51:17.344Z,7.21
2023-03-14T06:53:43.982Z,7.24
2023-03-14T06:56:10.622Z,7.18
2023-03-14T06:58:37.294Z,7.37
2023-03-14T07:01:04.076Z,7.48
2023-03-14T07:03:30.803Z,7.46
2023-03-14T07:05:57.441Z,7.55
2023-03-14T07:08:25.536Z,7.74
2023-03-14T07:10:52.185Z,7.50
2023-03-14T07:13:18.890Z,7.75
2023-03-14T07:15:46.043Z,7.60
2023-03-14T07:18:12.928Z,7.60
2023-03-14T07:20:39.602Z,7.23
2023-03-14T07:23:06.234Z,7.39
2023-03-14T07:25:32.922Z,7.40
2023-03-14T07:27:59.653Z,7.43
2023-03-14T07:30:26.279Z,7.43
2023-03-14T07:32:53.160Z,7.31
2023-03-14T07:35:19.848Z,7.22
2023-03-14T07:37:46.515Z,7.28
2023-03-14T07:40:13.345Z,7.52
2023-03-14T07:42:39.953Z,7.53
2023-03-14T07:45:07.883Z,7.54
2023-03-14T07:47:34.650Z,7.54
2023-03-14T07:50:01.470Z,7.53
2023-03-14T07:52:28.128Z,7.47
2023-03-14T07:54:54.799Z,7.61
2023-03-14T07:57:21.525Z,7.40
2023-03-14T07:59:48.114Z,7.57
2023-03-14T08:02:14.711Z,7.35
2023-03-14T08:04:41.798Z,7.50
2023-03-14T08:07:08.753Z,7.71
2023-03-14T08:09:35.393Z,7.63
2023-03-14T08:12:02.092Z,7.27
2023-03-14T08:14:28.698Z,7.33
2023-03-14T08:16:55.427Z,7.28
2023-03-14T08:19:22.075Z,7.34
2023-03-14T08:21:48.689Z,7.29
2023-03-14T08:24:15.363Z,7.07
2023-03-14T08:26:41.985Z,7.31
2023-03-14T08:29:08.776Z,7.38
2023-03-14T08:31:38.307Z,7.40
2023-03-14T08:34:04.957Z,7.32
2023-03-14T08:36:31.599Z,7.71
2023-03-14T08:38:58.340Z,7.69
2023-03-14T08:41:25.010Z,7.75
2023-03-14T08:43:51.666Z,7.89
2023-03-14T08:46:18.438Z,8.12
2023-03-14T08:48:45.110Z,7.82
2023-03-14T08:51:14.654Z,7.47
2023-03-14T08:53:42.174Z,7.53
2023-03-14T08:56:09.369Z,7.53
2023-03-14T08:58:36.209Z,7.45
2023-03-14T09:01:02.901Z,7.82
2023-03-14T09:03:29.642Z,7.67
2023-03-14T09:05:56.307Z,7.68
2023-03-14T09:08:22.977Z,7.84
2023-03-14T09:10:49.633Z,8.17
2023-03-14T09:13:16.314Z,8.04
2023-03-14T09:15:42.929Z,7.91
2023-03-14T09:18:09.543Z,7.68
2023-03-14T09:20:36.153Z,7.59
2023-03-14T09:23:02.737Z,7.65
2023-03-14T09:25:29.359Z,7.63
2023-03-14T09:27:55.983Z,7.38
2023-03-14T09:30:22.712Z,7.30
2023-03-14T09:32:49.430Z,7.25
2023-03-14T09:35:16.146Z,7.13
2023-03-14T09:37:42.749Z,7.29
2023-03-14T09:40:14.228Z,7.53
2023-03-14T09:42:40.865Z,7.58
2023-03-14T09:45:15.794Z,7.42
2023-03-14T09:47:56.524Z,7.69
2023-03-14T09:50:27.664Z,7.86
2023-03-14T09:53:08.373Z,7.91
2023-03-14T09:55:36.659Z,7.81
2023-03-14T09:58:13.352Z,7.85
2023-03-14T10:00:40.709Z,7.90
2023-03-14T10:03:13.074Z,7.76
2023-03-14T10:05:42.028Z,7.85
2023-03-14T10:08:12.565Z,7.60
2023-03-14T10:10:39.535Z,7.46
2023-03-14T10:13:32.269Z,7.36
2023-03-14T10:16:05.947Z,7.29
2023-03-14T10:18:33.343Z,7.24
2023-03-14T10:21:08.029Z,7.36
2023-03-14T10:23:36.089Z,7.13
2023-03-14T10:26:17.411Z,7.30
2023-03-14T10:29:01.765Z,7.19
2023-03-14T10:31:29.079Z,7.11
2023-03-14T10:34:05.028Z,7.08
2023-03-14T10:36:34.040Z,7.26
2023-03-14T10:39:18.679Z,7.36
2023-03-14T10:41:53.378Z,7.75
2023-03-14T10:44:25.023Z,7.84
2023-03-14T10:47:04.357Z,7.65
2023-03-14T10:49:38.154Z,7.72
2023-03-14T10:52:26.222Z,7.67
2023-03-14T10:55:03.371Z,7.52
2023-03-14T10:57:30.138Z,7.64
2023-03-14T10:59:57.780Z,8.05
2023-03-14T11:02:27.381Z,8.05
2023-03-14T11:05:03.202Z,7.99
2023-03-14T11:07:42.862Z,8.21
2023-03-14T11:10:29.470Z,8.31
2023-03-14T11:13:25.334Z,7.82
2023-03-14T11:16:03.316Z,7.89
2023-03-14T11:19:00.676Z,7.91
2023-03-14T11:21:53.226Z,8.05
2023-03-14T11:24:44.057Z,8.09
2023-03-14T11:27:23.779Z,8.60
2023-03-14T11:30:05.375Z,8.30
2023-03-14T11:32:44.196Z,7.41
2023-03-14T11:35:32.451Z,6.36
2023-03-14T11:38:31.674Z,4.62
2023-03-14T11:41:00.105Z,4.06
2023-03-14T11:43:40.521Z,4.47
2023-03-14T11:46:18.701Z,4.69
2023-03-14T11:49:07.486Z,4.95
2023-03-14T11:51:37.818Z,5.21
2023-03-14T11:54:27.565Z,5.41
2023-03-14T11:57:04.361Z,6.41
2023-03-14T11:59:56.205Z,6.57
2023-03-14T12:02:33.066Z,6.94
2023-03-14T12:05:32.541Z,7.05
2023-03-14T12:08:08.651Z,7.35
2023-03-14T12:11:16.933Z,7.82
2023-03-14T12:13:49.820Z,8.54
2023-03-14T12:16:25.544Z,8.68
2023-03-14T12:18:55.132Z,9.20
2023-03-14T12:21:25.174Z,9.35
2023-03-14T12:23:58.526Z,9.68
2023-03-14T12:26:28.296Z,9.68
2023-03-14T12:28:57.617Z,9.63
2023-03-14T12:31:30.448Z,9.55
2023-03-14T12:34:12.119Z,9.41
2023-03-14T12:36:47.687Z,9.75
2023-03-14T12:39:34.282Z,8.61
2023-03-14T12:42:23.988Z,9.05
2023-03-14T12:45:12.443Z,9.00
2023-03-14T12:47:39.042Z,8.92
2023-03-14T12:50:16.739Z,8.77
2023-03-14T12:53:05.148Z,9.40
2023-03-14T12:55:43.339Z,9.85
2023-03-14T12:58:21.615Z,9.51
2023-03-14T13:00:56.462Z,9.77
2023-03-14T13:03:28.552Z,9.35
2023-03-14T13:06:03.977Z,8.98
2023-03-14T13:08:43.578Z,9.21
2023-03-14T13:11:23.908Z,9.14
2023-03-14T13:13:57.580Z,9.78
2023-03-14T13:16:25.067Z,9.95
2023-03-14T13:19:12.250Z,9.93
2023-03-14T13:21:38.969Z,9.78
2023-03-14T13:24:08.581Z,9.79
2023-03-14T13:26:40.988Z,9.98
2023-03-14T13:29:28.740Z,9.97
2023-03-14T13:31:57.911Z,10.23
2023-03-14T13:34:27.847Z,10.08
2023-03-14T13:36:55.429Z,9.77
2023-03-14T13:39:24.948Z,9.48
2023-03-14T13:41:53.279Z,9.16
2023-03-14T13:44:33.337Z,8.68
2023-03-14T13:47:02.446Z,8.64
2023-03-14T13:49:32.271Z,8.58
2023-03-14T13:51:59.412Z,8.45
2023-03-14T13:54:28.583Z,8.41
2023-03-14T13:57:06.884Z,8.62
2023-03-14T13:59:36.123Z,8.53
2023-03-14T14:02:16.747Z,8.43
2023-03-14T14:04:47.233Z,8.73
2023-03-14T14:07:19.026Z,8.55
2023-03-14T14:09:50.752Z,9.07
2023-03-14T14:12:24.901Z,9.30
2023-03-14T14:15:05.054Z,9.93
2023-03-14T14:17:34.236Z,9.66
2023-03-14T14:20:03.933Z,9.78
2023-03-14T14:22:31.633Z,9.87
2023-03-14T14:24:58.577Z,9.08
2023-03-14T14:27:26.357Z,8.38
2023-03-14T14:30:20.440Z,8.03
2023-03-14T14:32:50.240Z,8.08
2023-03-14T14:35:36.513Z,7.95
2023-03-14T14:38:12.820Z,7.85
2023-03-14T14:40:46.663Z,7.77
2023-03-14T14:43:28.743Z,7.85
2023-03-14T14:45:57.706Z,7.81
2023-03-14T14:48:27.910Z,7.97
2023-03-14T14:51:02.040Z,8.07
2023-03-14T14:53:43.562Z,7.74
2023-03-14T14:56:30.115Z,7.77
2023-03-14T14:59:01.549Z,7.49
2023-03-14T15:01:36.680Z,7.28
2023-03-14T15:04:15.731Z,7.52
2023-03-14T15:06:49.640Z,7.32
2023-03-14T15:09:17.349Z,7.07
2023-03-14T15:11:44.821Z,7.30
2023-03-14T15:14:11.448Z,7.52
2023-03-14T15:16:40.255Z,7.46
2023-03-14T15:19:24.184Z,7.74
2023-03-14T15:21:53.029Z,7.79
2023-03-14T15:24:19.802Z,7.39
2023-03-14T15:26:46.585Z,7.32
2023-03-14T15:29:13.267Z,7.05
2023-03-14T15:31:41.526Z,7.19
2023-03-14T15:34:09.338Z,7.19
2023-03-14T15:36:37.470Z,7.82
2023-03-14T15:39:06.640Z,7.57
2023-03-14T15:41:33.521Z,8.29
2023-03-14T15:44:00.230Z,8.31
2023-03-14T15:46:28.227Z,8.35
2023-03-14T15:48:55.902Z,8.23
2023-03-14T15:51:22.582Z,8.64
2023-03-14T15:53:49.203Z,8.75
2023-03-14T15:56:19.144Z,8.07
2023-03-14T15:58:46.459Z,7.94
2023-03-14T16:01:14.636Z,7.94
2023-03-14T16:03:41.309Z,8.15
2023-03-14T16:06:07.937Z,8.35
2023-03-14T16:08:34.671Z,8.32
2023-03-14T16:11:01.408Z,8.44
2023-03-14T16:13:28.449Z,8.34
2023-03-14T16:15:59.745Z,8.57
2023-03-14T16:18:29.233Z,8.74
2023-03-14T16:20:58.643Z,8.59
2023-03-14T16:23:25.926Z,8.40
2023-03-14T16:25:53.786Z,8.30
2023-03-14T16:28:20.945Z,8.79
2023-03-14T16:30:47.597Z,9.03
2023-03-14T16:33:15.995Z,8.92
2023-03-14T16:35:54.250Z,8.01
2023-03-14T16:38:20.989Z,7.75
2023-03-14T16:40:56.588Z,7.32
2023-03-14T16:43:23.202Z,7.16
2023-03-14T16:45:50.708Z,7.10
2023-03-14T16:48:17.485Z,7.11
2023-03-14T16:50:44.104Z,7.21
2023-03-14T16:53:11.867Z,7.42
2023-03-14T16:55:42.447Z,7.11
2023-03-14T16:58:10.087Z,7.66
2023-03-14T17:00:37.457Z,7.26
2023-03-14T17:03:04.938Z,7.51
2023-03-14T17:05:32.289Z,7.47
2023-03-14T17:07:58.947Z,7.53
2023-03-14T17:10:25.882Z,7.67
2023-03-14T17:12:52.499Z,7.80
2023-03-14T17:15:19.135Z,8.10
2023-03-14T17:17:45.721Z,8.28
2023-03-14T17:20:12.805Z,8.38
2023-03-14T17:22:39.434Z,8.26
2023-03-14T17:25:06.613Z,8.38
2023-03-14T17:27:33.241Z,8.38
2023-03-14T17:29:59.860Z,8.28
2023-03-14T17:32:26.535Z,8.68
2023-03-14T17:34:53.217Z,8.43
2023-03-14T17:37:19.919Z,8.85
2023-03-14T17:39:46.543Z,8.64
2023-03-14T17:42:13.234Z,8.53
2023-03-14T17:44:39.858Z,8.31
2023-03-14T17:47:06.563Z,8.33
2023-03-14T17:49:33.197Z,8.02
2023-03-14T17:51:59.830Z,7.69
2023-03-14T17:54:26.605Z,7.85
2023-03-14T17:56:53.230Z,7.84
2023-03-14T17:59:19.887Z,7.55
2023-03-14T18:01:46.607Z,7.31
2023-03-14T18:04:13.297Z,7.60
2023-03-14T18:06:39.935Z,7.63
2023-03-14T18:09:06.623Z,7.29
2023-03-14T18:11:33.349Z,7.01
2023-03-14T18:14:00.200Z,7.20
2023-03-14T18:16:28.537Z,7.38
2023-03-14T18:18:55.424Z,7.57
2023-03-14T18:21:22.058Z,7.73
2023-03-14T18:23:48.892Z,7.85
2023-03-14T18:26:15.575Z,8.31
2023-03-14T18:28:42.217Z,8.15
2023-03-14T18:31:11.245Z,7.63
2023-03-14T18:33:38.059Z,7.50
2023-03-14T18:36:06.357Z,7.67
2023-03-14T18:38:32.966Z,7.94
2023-03-14T18:41:06.953Z,7.37
2023-03-14T18:43:35.070Z,7.53
2023-03-14T18:46:02.898Z,7.47
2023-03-14T18:48:30.065Z,7.45
2023-03-14T18:50:58.980Z,7.61
2023-03-14T18:53:25.804Z,7.36
2023-03-14T18:55:54.693Z,7.38
2023-03-14T18:58:21.339Z,7.46
2023-03-14T19:00:49.371Z,7.46
2023-03-14T19:03:16.069Z,7.29
2023-03-14T19:05:45.839Z,6.91
2023-03-14T19:08:12.458Z,7.15
2023-03-14T19:10:39.074Z,7.02
2023-03-14T19:13:05.739Z,7.31
2023-03-14T19:15:32.344Z,7.31
2023-03-14T19:17:59.030Z,7.17
2023-03-14T19:20:25.765Z,7.69
2023-03-14T19:22:52.436Z,7.89
2023-03-14T19:25:19.052Z,8.10
2023-03-14T19:27:45.658Z,8.13
2023-03-14T19:30:12.435Z,8.27
2023-03-14T19:32:39.257Z,7.86
2023-03-14T19:35:06.259Z,7.62
2023-03-14T19:37:32.873Z,7.67
2023-03-14T19:39:59.682Z,7.82
2023-03-14T19:42:26.427Z,7.84
2023-03-14T19:44:53.236Z,7.99
2023-03-14T19:47:20.061Z,7.98
2023-03-14T19:49:46.683Z,8.31
2023-03-14T19:52:13.278Z,8.41
2023-03-14T19:54:40.001Z,8.20
2023-03-14T19:57:06.628Z,8.23
2023-03-14T19:59:33.314Z,8.39
2023-03-14T20:02:00.131Z,8.25
2023-03-14T20:04:27.365Z,8.77
2023-03-14T20:06:54.130Z,8.84
2023-03-14T20:09:21.254Z,9.11
2023-03-14T20:11:48.429Z,9.00
2023-03-14T20:14:15.067Z,9.21
2023-03-14T20:16:42.597Z,9.13
2023-03-14T20:19:12.123Z,9.14
2023-03-14T20:21:38.962Z,8.86
2023-03-14T20:24:05.781Z,8.75
2023-03-14T20:26:32.453Z,8.33
2023-03-14T20:28:59.040Z,8.07
2023-03-14T20:31:25.880Z,8.36
2023-03-14T20:33:52.575Z,8.01
2023-03-14T20:36:19.280Z,7.74
2023-03-14T20:38:45.965Z,8.10
2023-03-14T20:41:12.626Z,8.03
2023-03-14T20:43:39.344Z,8.22
2023-03-14T20:46:06.270Z,7.87
2023-03-14T20:48:33.427Z,8.22
2023-03-14T20:51:00.409Z,7.88
2023-03-14T20:53:27.051Z,8.36
2023-03-14T20:55:56.208Z,8.52
2023-03-14T20:58:23.563Z,8.85
2023-03-14T21:00:51.899Z,8.22
2023-03-14T21:03:19.342Z,8.14
2023-03-14T21:05:48.104Z,8.66
2023-03-14T21:08:17.968Z,8.76
2023-03-14T21:10:49.187Z,8.24
2023-03-14T21:13:16.150Z,8.76
2023-03-14T21:15:43.175Z,8.65
2023-03-14T21:18:12.833Z,8.75
2023-03-14T21:20:41.336Z,8.88
2023-03-14T21:23:09.538Z,8.45
2023-03-14T21:25:36.344Z,8.61
2023-03-14T21:28:03.161Z,8.40
2023-03-14T21:30:32.473Z,8.10
2023-03-14T21:32:59.307Z,7.78
2023-03-14T21:35:25.961Z,8.61
2023-03-14T21:37:52.605Z,8.59
2023-03-14T21:40:19.372Z,8.89
2023-03-14T21:42:45.998Z,8.69
2023-03-14T21:45:14.139Z,8.71
2023-03-14T21:47:40.758Z,8.72
2023-03-14T21:50:07.523Z,9.07
2023-03-14T21:52:34.200Z,9.51
2023-03-14T21:55:00.861Z,9.27
2023-03-14T21:57:27.538Z,9.04
2023-03-14T21:59:54.135Z,8.83
2023-03-14T22:02:20.935Z,8.77
2023-03-14T22:04:47.844Z,8.63
2023-03-14T22:07:18.612Z,8.66
2023-03-14T22:09:46.859Z,8.46
2023-03-14T22:12:14.013Z,7.80
2023-03-14T22:14:40.772Z,7.61
2023-03-14T22:17:07.520Z,7.66
2023-03-14T22:19:34.132Z,7.75
2023-03-14T22:22:00.745Z,7.43
2023-03-14T22:24:27.400Z,7.52
2023-03-14T22:26:55.636Z,7.27
2023-03-14T22:29:24.052Z,7.36
2023-03-14T22:31:51.180Z,7.32
2023-03-14T22:34:17.974Z,7.52
2023-03-14T22:36:44.613Z,7.21
2023-03-14T22:39:11.217Z,7.13
2023-03-14T22:41:37.998Z,7.15
2023-03-14T22:44:04.646Z,7.23
2023-03-14T22:46:31.272Z,7.08
2023-03-14T22:48:57.941Z,6.91
2023-03-14T22:51:24.553Z,6.32
2023-03-14T22:53:51.311Z,5.70
2023-03-14T22:56:18.044Z,5.47
2023-03-14T22:58:45.808Z,5.57
2023-03-14T23:01:13.419Z,5.46
2023-03-14T23:03:40.400Z,5.78
2023-03-14T23:06:07.458Z,5.57
2023-03-14T23:08:34.525Z,5.73
2023-03-14T23:11:02.907Z,5.62
2023-03-14T23:13:30.928Z,5.55
2023-03-14T23:15:58.550Z,5.90
2023-03-14T23:18:25.373Z,6.13
2023-03-14T23:20:52.037Z,5.78
2023-03-14T23:23:18.653Z,6.35
2023-03-14T23:25:53.542Z,6.48
2023-03-14T23:28:20.645Z,6.72
2023-03-14T23:30:47.269Z,6.38
2023-03-14T23:33:13.885Z,6.11
2023-03-14T23:35:40.560Z,6.22
2023-03-14T23:38:07.220Z,6.47
2023-03-14T23:40:33.869Z,6.84
2023-03-14T23:43:00.487Z,6.64
2023-03-14T23:45:27.114Z,6.27
2023-03-14T23:47:53.757Z,6.24
2023-03-14T23:50:20.349Z,6.07
2023-03-14T23:52:46.978Z,6.07
2023-03-14T23:55:13.644Z,6.15
2023-03-14T23:57:40.232Z,6.05
